createdAt,value
2019-03-28T00:00:54.100Z,99.00
2019-03-28T00:03:22.599Z,99.40
2019-03-28T00:05:51.303Z,99.30
2019-03-28T00:08:19.770Z,99.30
2019-03-28T00:10:48.266Z,99.30
2019-03-28T00:13:16.763Z,99.20
2019-03-28T00:15:45.318Z,99.50
2019-03-28T00:18:13.813Z,99.50
2019-03-28T00:20:42.347Z,99.60
2019-03-28T00:23:24.410Z,99.70
2019-03-28T00:25:52.944Z,99.60
2019-03-28T00:28:21.418Z,99.60
2019-03-28T00:30:50.153Z,99.50
2019-03-28T00:33:18.690Z,99.20
2019-03-28T00:35:47.187Z,99.20
2019-03-28T00:38:15.727Z,98.90
2019-03-28T00:40:44.287Z,98.70
2019-03-28T00:43:12.753Z,98.60
2019-03-28T00:45:44.405Z,98.50
2019-03-28T00:48:11.506Z,98.60
2019-03-28T00:50:39.972Z,98.40
2019-03-28T00:53:08.611Z,98.30
2019-03-28T00:55:37.295Z,98.10
2019-03-28T00:58:05.940Z,98.00
2019-03-28T01:00:34.568Z,97.90
2019-03-28T01:03:03.793Z,97.90
2019-03-28T01:05:32.427Z,98.10
2019-03-28T01:08:01.092Z,98.10
2019-03-28T01:10:29.718Z,98.10
2019-03-28T01:12:58.308Z,98.30
2019-03-28T01:15:26.842Z,98.50
2019-03-28T01:17:55.339Z,98.40
2019-03-28T01:20:23.879Z,98.30
2019-03-28T01:22:52.378Z,98.40
2019-03-28T01:25:20.913Z,98.40
2019-03-28T01:27:49.406Z,98.60
2019-03-28T01:30:17.942Z,98.60
2019-03-28T01:32:46.671Z,98.50
2019-03-28T01:35:15.163Z,98.60
2019-03-28T01:37:43.630Z,98.70
2019-03-28T01:40:12.186Z,99.00
2019-03-28T01:42:40.654Z,99.20
2019-03-28T01:45:09.689Z,99.40
2019-03-28T01:47:38.222Z,99.50
2019-03-28T01:50:07.053Z,99.60
2019-03-28T01:52:35.592Z,99.80
2019-03-28T01:55:06.083Z,99.60
2019-03-28T01:57:34.616Z,99.60
2019-03-28T02:00:03.390Z,99.60
2019-03-28T02:02:32.022Z,99.60
2019-03-28T02:05:00.662Z,99.60
2019-03-28T02:07:29.227Z,99.90
2019-03-28T02:09:58.176Z,99.90
2019-03-28T02:12:26.767Z,99.90
2019-03-28T02:14:55.327Z,99.90
2019-03-28T02:17:23.826Z,99.90
2019-03-28T02:19:52.300Z,99.90
2019-03-28T02:22:20.830Z,99.90
2019-03-28T02:24:49.326Z,99.90
2019-03-28T02:27:23.822Z,99.90
2019-03-28T02:29:48.082Z,99.90
2019-03-28T02:32:16.580Z,99.90
2019-03-28T02:34:48.797Z,99.90
2019-03-28T02:37:15.237Z,99.90
2019-03-28T02:39:43.803Z,99.90
2019-03-28T02:42:12.348Z,99.90
2019-03-28T02:44:40.902Z,99.90
2019-03-28T02:47:09.546Z,99.90
2019-03-28T02:49:38.185Z,99.90
2019-03-28T02:52:06.728Z,99.90
2019-03-28T02:54:35.189Z,99.90
2019-03-28T02:57:03.758Z,99.90
2019-03-28T02:59:32.256Z,99.90
2019-03-28T03:02:00.820Z,99.90
2019-03-28T03:04:29.337Z,99.90
2019-03-28T03:06:57.892Z,99.90
2019-03-28T03:09:26.361Z,99.90
2019-03-28T03:11:54.987Z,99.90
2019-03-28T03:14:23.518Z,99.90
2019-03-28T03:16:52.014Z,99.90
2019-03-28T03:19:20.579Z,99.90
2019-03-28T03:21:49.135Z,99.90
2019-03-28T03:24:17.599Z,99.90
2019-03-28T03:26:46.099Z,99.90
2019-03-28T03:29:14.563Z,99.90
2019-03-28T03:31:43.069Z,99.90
2019-03-28T03:34:11.676Z,99.90
2019-03-28T03:36:40.211Z,99.90
2019-03-28T03:39:09.254Z,99.90
2019-03-28T03:41:37.930Z,99.90
2019-03-28T03:44:06.566Z,99.90
2019-03-28T03:46:35.101Z,99.90
2019-03-28T03:49:04.767Z,99.90
2019-03-28T03:51:33.501Z,99.90
2019-03-28T03:54:02.067Z,99.90
2019-03-28T03:56:30.530Z,99.90
2019-03-28T03:58:59.082Z,99.90
2019-03-28T04:01:27.637Z,99.90
2019-03-28T04:03:56.275Z,99.90
2019-03-28T04:06:24.767Z,99.90
2019-03-28T04:08:53.868Z,99.90
2019-03-28T04:11:22.670Z,99.90
2019-03-28T04:13:51.139Z,99.90
2019-03-28T04:16:19.703Z,99.90
2019-03-28T04:18:48.168Z,99.90
2019-03-28T04:21:17.598Z,99.90
2019-03-28T04:23:46.317Z,99.90
2019-03-28T04:26:14.947Z,99.90
2019-03-28T04:28:43.413Z,99.90
2019-03-28T04:31:11.988Z,99.90
2019-03-28T04:33:40.520Z,99.90
2019-03-28T04:36:09.046Z,99.90
2019-03-28T04:38:37.580Z,99.90
2019-03-28T04:41:06.119Z,99.90
2019-03-28T04:43:34.691Z,99.90
2019-03-28T04:46:03.686Z,99.90
2019-03-28T04:48:32.194Z,99.90
2019-03-28T04:51:01.339Z,99.90
2019-03-28T04:53:29.907Z,99.90
2019-03-28T04:55:58.470Z,99.90
2019-03-28T04:58:27.027Z,99.90
2019-03-28T05:00:55.611Z,99.90
2019-03-28T05:03:24.102Z,99.90
2019-03-28T05:05:52.639Z,99.90
2019-03-28T05:08:21.156Z,99.90
2019-03-28T05:10:49.692Z,99.90
2019-03-28T05:13:18.227Z,99.90
2019-03-28T05:15:46.721Z,99.90
2019-03-28T05:18:15.186Z,99.90
2019-03-28T05:20:43.675Z,99.90
2019-03-28T05:23:12.167Z,99.90
2019-03-28T05:25:40.634Z,99.90
2019-03-28T05:28:09.213Z,99.90
2019-03-28T05:30:37.680Z,99.90
2019-03-28T05:33:06.216Z,99.90
2019-03-28T05:35:34.711Z,99.90
2019-03-28T05:38:03.175Z,99.90
2019-03-28T05:40:31.812Z,99.90
2019-03-28T05:43:00.298Z,99.90
2019-03-28T05:45:28.845Z,99.90
2019-03-28T05:48:00.206Z,99.90
2019-03-28T05:50:27.530Z,99.90
2019-03-28T05:52:56.097Z,99.90
2019-03-28T05:55:24.630Z,99.90
2019-03-28T06:00:38.782Z,99.80
2019-03-28T06:03:05.860Z,99.60
2019-03-28T06:05:34.395Z,99.30
2019-03-28T06:08:02.885Z,99.10
2019-03-28T06:10:31.503Z,98.70
2019-03-28T06:13:00.062Z,98.50
2019-03-28T06:15:28.558Z,98.20
2019-03-28T06:17:57.050Z,98.20
2019-03-28T06:20:25.533Z,97.70
2019-03-28T06:22:53.999Z,97.20
2019-03-28T06:25:22.957Z,97.00
2019-03-28T06:27:51.825Z,96.70
2019-03-28T06:30:20.550Z,96.40
2019-03-28T06:32:49.011Z,95.90
2019-03-28T06:35:18.286Z,95.60
2019-03-28T06:37:46.979Z,95.30
2019-03-28T06:40:15.607Z,95.30
2019-03-28T06:42:44.075Z,95.20
2019-03-28T06:45:13.178Z,95.30
2019-03-28T06:47:41.670Z,94.50
2019-03-28T06:50:10.478Z,94.10
2019-03-28T06:52:39.378Z,93.80
2019-03-28T06:55:08.086Z,93.90
2019-03-28T06:57:36.649Z,93.60
2019-03-28T07:00:08.594Z,93.10
2019-03-28T07:02:37.276Z,93.10
2019-03-28T07:05:06.551Z,92.90
2019-03-28T07:07:35.038Z,92.30
2019-03-28T07:10:05.221Z,91.90
2019-03-28T07:12:33.753Z,91.50
2019-03-28T07:15:02.324Z,91.40
2019-03-28T07:17:30.883Z,90.30
2019-03-28T07:19:59.367Z,89.60
2019-03-28T07:22:28.416Z,88.00
2019-03-28T07:24:56.907Z,87.40
2019-03-28T07:27:25.471Z,85.90
2019-03-28T07:29:53.943Z,85.20
2019-03-28T07:32:22.438Z,84.20
2019-03-28T07:34:50.906Z,82.80
2019-03-28T07:37:19.398Z,77.80
2019-03-28T07:39:47.897Z,74.60
2019-03-28T07:42:16.444Z,73.30
2019-03-28T07:44:45.033Z,72.30
2019-03-28T07:47:13.570Z,70.40
2019-03-28T07:49:42.147Z,70.60
2019-03-28T07:52:10.711Z,69.30
2019-03-28T07:54:39.397Z,67.70
2019-03-28T07:57:08.074Z,66.70
2019-03-28T07:59:36.594Z,66.00
2019-03-28T08:02:05.338Z,64.70
2019-03-28T08:04:33.886Z,60.10
2019-03-28T08:07:02.527Z,56.90
2019-03-28T08:09:36.422Z,52.90
2019-03-28T08:12:01.287Z,46.50
2019-03-28T08:14:29.830Z,41.80
2019-03-28T08:16:58.327Z,38.80
2019-03-28T08:19:26.822Z,36.10
2019-03-28T08:21:55.406Z,32.70
2019-03-28T08:24:24.586Z,31.30
2019-03-28T08:26:53.063Z,31.10
2019-03-28T08:29:21.695Z,31.60
2019-03-28T08:31:52.137Z,34.60
2019-03-28T08:34:20.730Z,34.40
2019-03-28T08:36:50.704Z,32.20
2019-03-28T08:39:20.814Z,32.40
2019-03-28T08:41:50.583Z,34.20
2019-03-28T08:44:22.372Z,36.80
2019-03-28T08:46:49.483Z,38.10
2019-03-28T08:49:18.027Z,37.80
2019-03-28T08:51:46.695Z,38.40
2019-03-28T08:54:15.190Z,39.20
2019-03-28T08:56:43.775Z,39.50
2019-03-28T08:59:12.247Z,38.70
2019-03-28T09:01:40.885Z,37.50
2019-03-28T09:04:09.422Z,33.80
2019-03-28T09:06:37.918Z,34.20
2019-03-28T09:09:07.826Z,34.60
2019-03-28T09:11:36.436Z,33.30
2019-03-28T09:14:05.051Z,35.20
2019-03-28T09:16:33.586Z,35.50
2019-03-28T09:19:02.163Z,36.80
2019-03-28T09:21:30.706Z,37.40
2019-03-28T09:23:59.204Z,37.00
2019-03-28T09:26:27.819Z,35.80
2019-03-28T09:28:56.314Z,34.70
2019-03-28T09:31:24.954Z,33.30
2019-03-28T09:33:53.559Z,32.20
2019-03-28T09:36:22.103Z,33.00
2019-03-28T09:38:50.820Z,31.50
2019-03-28T09:41:19.552Z,29.80
2019-03-28T09:43:55.156Z,29.20
2019-03-28T09:46:18.239Z,29.20
2019-03-28T09:48:46.822Z,28.20
2019-03-28T09:51:15.290Z,27.30
2019-03-28T09:53:43.763Z,28.80
2019-03-28T09:56:12.345Z,29.40
2019-03-28T09:58:40.931Z,29.30
2019-03-28T10:01:09.478Z,29.20
2019-03-28T10:03:38.019Z,29.90
2019-03-28T10:06:06.526Z,29.00
2019-03-28T10:08:35.056Z,29.10
2019-03-28T10:11:03.756Z,29.70
2019-03-28T10:13:32.370Z,30.90
2019-03-28T10:16:00.851Z,30.60
2019-03-28T10:18:30.206Z,30.90
2019-03-28T10:20:58.957Z,30.80
2019-03-28T10:23:27.685Z,32.50
2019-03-28T10:25:56.251Z,33.90
2019-03-28T10:28:24.718Z,35.70
2019-03-28T10:30:53.186Z,35.60
2019-03-28T10:33:21.686Z,34.10
2019-03-28T10:35:50.226Z,32.40
2019-03-28T10:38:18.734Z,31.20
2019-03-28T10:40:47.347Z,31.80
2019-03-28T10:43:15.815Z,34.20
2019-03-28T10:45:44.306Z,35.80
2019-03-28T10:48:12.803Z,34.10
2019-03-28T10:50:45.299Z,36.50
2019-03-28T10:53:11.639Z,36.20
2019-03-28T10:55:40.252Z,35.80
2019-03-28T10:58:18.384Z,34.30
2019-03-28T11:00:39.442Z,37.40
2019-03-28T11:03:08.242Z,35.10
2019-03-28T11:05:36.846Z,32.40
2019-03-28T11:08:05.411Z,32.20
2019-03-28T11:10:33.979Z,32.30
2019-03-28T11:13:02.455Z,33.90
2019-03-28T11:15:31.198Z,36.00
2019-03-28T11:17:59.738Z,39.80
2019-03-28T11:20:28.308Z,41.10
2019-03-28T11:22:57.185Z,38.00
2019-03-28T11:25:25.764Z,35.50
2019-03-28T11:27:54.398Z,36.80
2019-03-28T11:30:22.939Z,36.10
2019-03-28T11:32:51.431Z,36.20
2019-03-28T11:35:19.900Z,37.20
2019-03-28T11:37:48.930Z,38.50
2019-03-28T11:40:17.642Z,39.50
2019-03-28T11:42:46.239Z,40.40
2019-03-28T11:45:16.631Z,40.90
2019-03-28T11:47:45.971Z,42.40
2019-03-28T11:50:17.291Z,41.60
2019-03-28T11:52:46.793Z,42.50
2019-03-28T11:55:16.665Z,43.60
2019-03-28T11:57:46.213Z,44.30
2019-03-28T12:00:17.500Z,45.00
2019-03-28T12:02:46.950Z,45.00
2019-03-28T12:05:16.440Z,46.10
2019-03-28T12:07:46.562Z,46.20
2019-03-28T12:10:15.992Z,45.40
2019-03-28T12:12:44.614Z,45.60
2019-03-28T12:15:14.048Z,45.40
2019-03-28T12:17:42.587Z,44.80
2019-03-28T12:20:11.421Z,45.90
2019-03-28T12:22:39.958Z,46.70
2019-03-28T12:25:08.762Z,46.90
2019-03-28T12:27:37.500Z,47.30
2019-03-28T12:30:11.141Z,47.60
2019-03-28T12:32:39.707Z,47.60
2019-03-28T12:35:08.787Z,46.40
2019-03-28T12:37:37.275Z,47.00
2019-03-28T12:40:09.836Z,47.70
2019-03-28T12:42:39.109Z,49.30
2019-03-28T12:45:12.090Z,49.70
2019-03-28T12:47:42.559Z,49.80
2019-03-28T12:50:12.893Z,48.70
2019-03-28T12:52:42.217Z,49.20
2019-03-28T12:55:11.674Z,48.80
2019-03-28T12:57:40.359Z,47.80
2019-03-28T13:00:11.035Z,47.10
2019-03-28T13:02:40.210Z,47.50
2019-03-28T13:05:09.440Z,48.50
2019-03-28T13:07:38.051Z,49.50
2019-03-28T13:10:09.334Z,50.10
2019-03-28T13:12:38.021Z,49.10
2019-03-28T13:15:07.023Z,48.30
2019-03-28T13:17:35.636Z,47.70
2019-03-28T13:20:06.599Z,47.40
2019-03-28T13:22:35.091Z,48.60
2019-03-28T13:25:04.594Z,47.40
2019-03-28T13:27:34.627Z,48.70
2019-03-28T13:30:03.850Z,48.90
2019-03-28T13:32:41.582Z,46.70
2019-03-28T13:35:02.768Z,47.50
2019-03-28T13:37:31.417Z,48.40
2019-03-28T13:39:59.935Z,48.10
2019-03-28T13:42:28.583Z,48.80
2019-03-28T13:44:57.069Z,48.60
2019-03-28T13:47:25.647Z,49.10
2019-03-28T13:49:54.240Z,49.40
2019-03-28T13:52:22.774Z,50.10
2019-03-28T13:54:53.023Z,50.60
2019-03-28T13:57:21.751Z,50.30
2019-03-28T13:59:50.665Z,50.30
2019-03-28T14:02:19.198Z,50.60
2019-03-28T14:04:47.854Z,49.70
2019-03-28T14:07:17.441Z,47.80
2019-03-28T14:09:46.186Z,46.90
2019-03-28T14:12:14.659Z,46.00
2019-03-28T14:14:43.227Z,46.10
2019-03-28T14:17:11.795Z,45.60
2019-03-28T14:19:40.281Z,47.40
2019-03-28T14:22:08.834Z,49.10
2019-03-28T14:24:37.459Z,48.80
2019-03-28T14:27:06.026Z,49.10
2019-03-28T14:29:34.520Z,49.40
2019-03-28T14:32:03.064Z,49.40
2019-03-28T14:34:31.623Z,49.70
2019-03-28T14:37:00.188Z,49.60
2019-03-28T14:39:28.726Z,49.30
2019-03-28T14:41:57.219Z,49.20
2019-03-28T14:44:25.953Z,49.80
2019-03-28T14:46:54.492Z,49.90
2019-03-28T14:49:23.050Z,49.20
2019-03-28T14:51:51.592Z,49.90
2019-03-28T14:54:20.060Z,50.90
2019-03-28T14:56:49.302Z,49.80
2019-03-28T14:59:31.798Z,50.40
2019-03-28T15:01:50.081Z,50.80
2019-03-28T15:04:18.646Z,50.70
2019-03-28T15:06:47.186Z,51.40
2019-03-28T15:09:15.917Z,51.60
2019-03-28T15:11:44.657Z,52.20
2019-03-28T15:14:14.585Z,52.70
2019-03-28T15:16:43.143Z,52.70
2019-03-28T15:19:11.606Z,53.10
2019-03-28T15:21:40.187Z,53.30
2019-03-28T15:24:08.681Z,53.90
2019-03-28T15:26:37.287Z,53.50
2019-03-28T15:29:05.780Z,53.70
2019-03-28T15:31:34.360Z,54.40
2019-03-28T15:34:02.848Z,54.90
2019-03-28T15:36:31.687Z,55.50
2019-03-28T15:39:00.146Z,56.00
2019-03-28T15:41:28.630Z,56.40
2019-03-28T15:43:57.115Z,56.80
2019-03-28T15:46:25.675Z,57.20
2019-03-28T15:48:54.371Z,57.40
2019-03-28T15:51:22.923Z,57.20
2019-03-28T15:53:51.481Z,57.00
2019-03-28T15:56:19.946Z,57.10
2019-03-28T15:58:48.431Z,56.80
2019-03-28T16:01:16.941Z,56.80
2019-03-28T16:03:52.958Z,56.40
2019-03-28T16:06:15.666Z,56.40
2019-03-28T16:08:44.156Z,56.70
2019-03-28T16:11:12.620Z,56.80
2019-03-28T16:13:41.103Z,56.40
2019-03-28T16:16:09.591Z,56.90
2019-03-28T16:18:38.074Z,56.80
2019-03-28T16:21:06.714Z,56.90
2019-03-28T16:23:35.199Z,57.20
2019-03-28T16:26:03.745Z,57.80
2019-03-28T16:28:32.279Z,58.10
2019-03-28T16:31:00.774Z,58.40
2019-03-28T16:33:29.263Z,58.00
2019-03-28T16:35:57.803Z,58.20
2019-03-28T16:38:26.369Z,58.20
2019-03-28T16:40:54.919Z,58.20
2019-03-28T16:43:25.799Z,58.20
2019-03-28T16:45:53.691Z,58.20
2019-03-28T16:48:22.218Z,58.20
2019-03-28T16:50:50.774Z,58.50
2019-03-28T16:53:19.357Z,58.60
2019-03-28T16:55:47.814Z,58.60
2019-03-28T16:58:16.298Z,58.90
2019-03-28T17:00:44.821Z,59.00
2019-03-28T17:03:13.355Z,59.20
2019-03-28T17:05:42.008Z,59.40
2019-03-28T17:08:10.514Z,59.50
2019-03-28T17:10:44.827Z,60.10
2019-03-28T17:13:13.772Z,59.80
2019-03-28T17:15:42.371Z,60.30
2019-03-28T17:18:10.936Z,60.80
2019-03-28T17:20:39.485Z,61.20
2019-03-28T17:23:08.199Z,61.40
2019-03-28T17:25:36.668Z,61.30
2019-03-28T17:28:05.344Z,61.60
2019-03-28T17:30:33.852Z,61.90
2019-03-28T17:33:02.482Z,62.30
2019-03-28T17:35:31.024Z,62.50
2019-03-28T17:37:59.499Z,62.90
2019-03-28T17:40:27.968Z,63.20
2019-03-28T17:42:56.434Z,63.30
2019-03-28T17:45:25.692Z,63.40
2019-03-28T17:47:54.531Z,63.70
2019-03-28T17:50:23.019Z,63.90
2019-03-28T17:52:51.484Z,64.10
2019-03-28T17:55:20.049Z,64.40
2019-03-28T17:57:48.582Z,64.60
2019-03-28T18:00:17.682Z,65.20
2019-03-28T18:02:46.190Z,66.30
2019-03-28T18:05:15.980Z,65.50
2019-03-28T18:07:44.729Z,66.20
2019-03-28T18:10:13.935Z,66.20
2019-03-28T18:12:42.663Z,66.60
2019-03-28T18:15:11.674Z,66.80
2019-03-28T18:17:40.196Z,67.20
2019-03-28T18:20:09.316Z,67.60
2019-03-28T18:22:37.923Z,68.00
2019-03-28T18:25:30.029Z,68.40
2019-03-28T18:27:57.051Z,68.80
2019-03-28T18:30:25.974Z,69.20
2019-03-28T18:32:54.510Z,69.90
2019-03-28T18:35:22.972Z,70.30
2019-03-28T18:37:51.459Z,70.80
2019-03-28T18:40:20.714Z,71.50
2019-03-28T18:42:49.470Z,71.70
2019-03-28T18:45:18.344Z,72.10
2019-03-28T18:47:46.967Z,72.40
2019-03-28T18:50:16.067Z,72.80
2019-03-28T18:52:44.683Z,73.30
2019-03-28T18:55:13.879Z,73.40
2019-03-28T18:57:42.431Z,73.80
2019-03-28T19:00:11.770Z,74.10
2019-03-28T19:02:40.247Z,74.40
2019-03-28T19:05:19.103Z,74.70
2019-03-28T19:07:39.155Z,74.80
2019-03-28T19:10:08.163Z,74.60
2019-03-28T19:12:36.887Z,74.20
2019-03-28T19:15:07.114Z,74.50
2019-03-28T19:17:36.279Z,73.90
2019-03-28T19:20:07.851Z,73.80
2019-03-28T19:22:36.719Z,73.70
2019-03-28T19:25:08.748Z,73.60
2019-03-28T19:27:38.107Z,73.80
2019-03-28T19:30:07.304Z,73.90
2019-03-28T19:32:35.955Z,73.80
2019-03-28T19:35:06.931Z,73.90
2019-03-28T19:37:37.158Z,73.90
2019-03-28T19:40:08.459Z,74.00
2019-03-28T19:42:37.350Z,73.90
2019-03-28T19:45:07.524Z,74.10
2019-03-28T19:47:36.196Z,74.30
2019-03-28T19:50:07.384Z,74.30
2019-03-28T19:52:36.366Z,74.40
2019-03-28T19:55:06.372Z,74.30
2019-03-28T19:57:34.924Z,74.60
2019-03-28T20:00:04.871Z,74.90
2019-03-28T20:02:33.842Z,74.90
2019-03-28T20:05:02.723Z,75.00
2019-03-28T20:07:31.319Z,74.90
2019-03-28T20:09:59.910Z,75.40
2019-03-28T20:12:28.370Z,75.60
2019-03-28T20:15:00.031Z,76.00
2019-03-28T20:17:27.450Z,76.30
2019-03-28T20:19:55.938Z,76.40
2019-03-28T20:22:24.499Z,76.60
2019-03-28T20:24:52.990Z,76.90
2019-03-28T20:27:21.459Z,78.10
2019-03-28T20:29:50.013Z,77.60
2019-03-28T20:32:18.580Z,77.80
2019-03-28T20:34:49.121Z,77.80
2019-03-28T20:37:17.394Z,77.80
2019-03-28T20:39:45.988Z,78.00
2019-03-28T20:42:14.527Z,78.30
2019-03-28T20:44:43.196Z,78.50
2019-03-28T20:47:11.898Z,78.70
2019-03-28T20:49:40.359Z,79.00
2019-03-28T20:52:09.543Z,79.00
2019-03-28T20:54:38.379Z,79.20
2019-03-28T20:57:06.947Z,79.90
2019-03-28T20:59:35.503Z,80.30
2019-03-28T21:02:04.147Z,80.60
2019-03-28T21:04:34.078Z,80.80
2019-03-28T21:07:03.463Z,81.40
2019-03-28T21:09:32.003Z,82.00
2019-03-28T21:12:00.639Z,82.80
2019-03-28T21:14:29.131Z,83.70
2019-03-28T21:16:58.300Z,84.40
2019-03-28T21:19:27.046Z,85.00
2019-03-28T21:21:55.580Z,85.70
2019-03-28T21:24:24.140Z,86.40
2019-03-28T21:26:52.607Z,87.40
2019-03-28T21:29:21.170Z,87.80
2019-03-28T21:31:50.430Z,88.10
2019-03-28T21:34:20.423Z,88.50
2019-03-28T21:36:49.727Z,88.80
2019-03-28T21:39:18.336Z,88.90
2019-03-28T21:41:46.823Z,89.50
2019-03-28T21:44:15.306Z,89.40
2019-03-28T21:46:43.934Z,89.40
2019-03-28T21:49:13.971Z,90.10
2019-03-28T21:51:45.669Z,89.60
2019-03-28T21:54:12.825Z,89.70
2019-03-28T21:56:41.648Z,90.00
2019-03-28T21:59:10.231Z,90.30
2019-03-28T22:01:38.806Z,90.40
2019-03-28T22:04:07.365Z,90.60
2019-03-28T22:06:42.784Z,90.60
2019-03-28T22:09:06.895Z,90.70
2019-03-28T22:11:35.451Z,90.80
2019-03-28T22:14:04.078Z,91.00
2019-03-28T22:16:32.560Z,91.20
2019-03-28T22:19:01.119Z,91.40
2019-03-28T22:21:29.655Z,91.60
2019-03-28T22:23:58.227Z,91.80
2019-03-28T22:26:26.834Z,91.90
2019-03-28T22:28:55.348Z,91.80
2019-03-28T22:31:23.882Z,92.00
2019-03-28T22:33:52.353Z,92.00
2019-03-28T22:36:20.994Z,92.10
2019-03-28T22:38:49.526Z,92.20
2019-03-28T22:41:18.095Z,92.20
2019-03-28T22:43:46.586Z,92.40
2019-03-28T22:46:15.043Z,92.60
2019-03-28T22:48:44.569Z,92.80
2019-03-28T22:51:13.158Z,92.80
2019-03-28T22:53:41.643Z,93.30
2019-03-28T22:56:10.102Z,93.60
2019-03-28T22:58:38.597Z,93.70
2019-03-28T23:01:07.567Z,93.90
2019-03-28T23:03:36.162Z,94.20
2019-03-28T23:06:04.715Z,94.30
2019-03-28T23:08:33.251Z,94.30
2019-03-28T23:11:01.812Z,94.30
2019-03-28T23:13:30.367Z,94.40
2019-03-28T23:15:58.991Z,94.50
2019-03-28T23:18:27.598Z,94.70
2019-03-28T23:20:56.162Z,94.90
2019-03-28T23:23:25.836Z,94.90
2019-03-28T23:25:54.618Z,95.10
2019-03-28T23:28:23.151Z,95.20
2019-03-28T23:30:51.611Z,95.30
2019-03-28T23:33:20.099Z,95.30
2019-03-28T23:35:48.650Z,95.20
2019-03-28T23:38:17.114Z,95.10
2019-03-28T23:40:45.602Z,95.20
2019-03-28T23:43:14.063Z,95.10
2019-03-28T23:45:42.548Z,95.20
2019-03-28T23:48:11.011Z,95.30
2019-03-28T23:50:39.491Z,95.30
2019-03-28T23:53:08.848Z,95.40
2019-03-28T23:55:37.487Z,95.60
2019-03-28T23:58:05.972Z,95.60
